Concord, Michigan
Current Conditions -  °F | °C
As of 12:56 PM on Sunday 25 Jan 2015 (Local Time) from KJXN Reporting Station
Overcast Overcast  
Wind Chill: 14°   Ceiling: 5500
Heat Index: 25°   Visibility: 10mi
Dew Point: 15°   Wind: 13mph
Humidity: 66%   Direction: 80°E
Pressure: 29.85"   Gusts: 20mph
Location:  42.18°N, 84.64°W
Report Text: KJXN 251756Z 08011G17KT 10SM OVC055 M04/M09 A2985 RMK AO2 SLP119 60000 T10391094 11011 21039 50007
Loading
Personal Weather Stations






























Interactive Weather Map New forecast layout! Learn more

10-Day Weather Forecast

Advertisements
Track Severe Weather on mobile